Time;durP1;ratioP1;P1;durP2;ratioP2;P2;SDS_P1;SDS_P2;PMS_P1;PMS_P2;Temp;Humidity;BMP_temperature;BMP_pressure;BME280_temperature;BME280_humidity;BME280_pressure;Samples;Min_cycle;Max_cycle;Signal;HPM_P1;HPM_P2
2022/06/21 00:02:11;;;;;;;6.82;5.20;;;27.00;51.00;;;;;;4954160;28;20039;-49
2022/06/21 00:04:36;;;;;;;6.35;4.63;;;27.00;51.00;;;;;;4952690;28;20107;-49
2022/06/21 00:07:05;;;;;;;5.80;5.15;;;27.00;51.00;;;;;;4954327;28;20114;-50
2022/06/21 00:09:31;;;;;;;5.50;4.63;;;27.00;50.90;;;;;;4954416;28;20026;-49
2022/06/21 00:11:56;;;;;;;5.53;4.65;;;27.00;50.90;;;;;;4953476;28;20106;-49
2022/06/21 00:14:22;;;;;;;6.60;5.00;;;27.00;50.90;;;;;;4954120;28;20570;-50
2022/06/21 00:16:48;;;;;;;5.57;4.70;;;27.00;50.90;;;;;;4952980;28;20506;-49
2022/06/21 00:19:21;;;;;;;5.75;4.28;;;27.00;50.90;;;;;;4953035;28;20073;-49
2022/06/21 00:21:47;;;;;;;5.93;4.97;;;27.00;51.00;;;;;;4953405;28;20027;-48
2022/06/21 00:24:16;;;;;;;5.28;4.40;;;27.00;50.90;;;;;;4953902;28;20438;-49
2022/06/21 00:26:43;;;;;;;7.10;4.75;;;27.00;50.90;;;;;;4954270;28;20929;-50
2022/06/21 00:29:10;;;;;;;5.28;4.47;;;27.00;50.90;;;;;;4953876;28;20115;-49
2022/06/21 00:31:39;;;;;;;4.93;4.10;;;27.00;50.90;;;;;;4953580;28;20032;-49
2022/06/21 00:34:12;;;;;;;5.82;4.45;;;27.00;50.90;;;;;;4953324;28;20592;-49
2022/06/21 00:36:37;;;;;;;;;;;27.00;50.90;;;;;;4954482;28;20030;-49
2022/06/21 00:39:05;;;;;;;5.53;4.70;;;27.00;50.90;;;;;;4953469;28;19914;-50
2022/06/21 00:41:45;;;;;;;6.82;4.75;;;27.00;50.90;;;;;;4952357;28;20035;-50
2022/06/21 00:44:17;;;;;;;5.38;4.35;;;27.00;50.90;;;;;;4952799;28;20122;-49
2022/06/21 00:46:47;;;;;;;4.93;4.07;;;27.00;50.80;;;;;;4952547;28;20480;-52
2022/06/21 00:49:25;;;;;;;6.53;4.43;;;27.00;50.80;;;;;;4955518;28;20023;-49
2022/06/21 00:51:57;;;;;;;4.50;3.72;;;27.00;50.90;;;;;;4956168;28;20027;-50
2022/06/21 00:54:49;;;;;;;4.70;4.00;;;27.00;50.80;;;;;;4957293;28;20661;-49
2022/06/21 00:57:17;;;;;;;4.63;3.42;;;26.90;50.30;;;;;;4954405;28;20110;-49
2022/06/21 00:59:46;;;;;;;5.88;4.00;;;27.00;50.80;;;;;;4956998;28;20427;-49
2022/06/21 01:02:34;;;;;;;4.95;3.65;;;26.90;50.20;;;;;;4956530;28;20333;-49
2022/06/21 01:05:01;;;;;;;4.45;3.42;;;27.00;50.70;;;;;;4956548;28;20521;-49
2022/06/21 01:07:28;;;;;;;5.65;3.65;;;27.00;50.70;;;;;;4956453;28;20030;-48
2022/06/21 01:10:09;;;;;;;4.60;3.65;;;27.00;50.60;;;;;;4956845;28;20488;-49
2022/06/21 01:12:45;;;;;;;5.05;3.97;;;27.00;50.70;;;;;;4955928;28;20026;-49
2022/06/21 01:15:22;;;;;;;5.05;3.72;;;27.00;50.60;;;;;;4956398;28;20023;-50
2022/06/21 01:17:50;;;;;;;4.80;3.40;;;26.90;50.10;;;;;;4956757;28;20584;-49
2022/06/21 01:20:20;;;;;;;4.38;3.15;;;27.00;50.60;;;;;;4956981;28;20454;-49
2022/06/21 01:23:11;;;;;;;4.43;3.20;;;27.00;50.60;;;;;;4957381;28;20046;-50
2022/06/21 01:26:01;;;;;;;4.05;2.95;;;26.90;50.00;;;;;;4956173;28;20042;-49
2022/06/21 01:28:26;;;;;;;4.22;3.30;;;26.90;50.00;;;;;;4956077;28;20529;-49
2022/06/21 01:30:56;;;;;;;4.07;3.17;;;26.90;49.90;;;;;;4955870;28;20455;-50
2022/06/21 01:33:29;;;;;;;4.30;3.00;;;26.90;49.90;;;;;;4955815;28;20034;-50
2022/06/21 01:35:59;;;;;;;4.75;2.83;;;26.90;49.90;;;;;;4954049;28;20034;-49
2022/06/21 01:38:29;;;;;;;4.32;2.88;;;26.90;49.80;;;;;;4954081;28;20038;-49
2022/06/21 01:41:03;;;;;;;3.72;2.50;;;26.90;49.80;;;;;;4952861;28;20023;-49
2022/06/21 01:43:31;;;;;;;3.50;2.63;;;26.90;49.80;;;;;;4955196;28;20106;-50
2022/06/21 01:46:03;;;;;;;3.45;2.45;;;26.90;49.80;;;;;;4956462;28;20035;-49
2022/06/21 01:48:38;;;;;;;4.43;2.65;;;26.90;49.80;;;;;;4956426;28;20455;-50
2022/06/21 01:51:08;;;;;;;3.47;2.35;;;26.90;49.80;;;;;;4956603;28;20776;-49
2022/06/21 01:53:36;;;;;;;4.03;2.60;;;26.90;49.70;;;;;;4952162;28;20023;-49
2022/06/21 01:56:16;;;;;;;3.38;2.17;;;26.90;49.70;;;;;;4955743;28;20034;-50
2022/06/21 01:58:48;;;;;;;3.40;2.25;;;26.90;49.70;;;;;;4956142;28;20074;-50
2022/06/21 02:01:19;;;;;;;3.50;2.15;;;26.90;49.60;;;;;;4954062;28;20022;-49
2022/06/21 02:03:49;;;;;;;4.05;2.30;;;26.90;49.60;;;;;;4954496;28;20030;-49
2022/06/21 02:06:16;;;;;;;3.30;2.20;;;26.90;49.50;;;;;;4952594;28;20047;-49
2022/06/21 02:08:49;;;;;;;3.08;1.80;;;26.90;49.40;;;;;;4954969;28;20735;-49
2022/06/21 02:11:23;;;;;;;;;;;26.90;49.40;;;;;;4955636;28;20031;-49
2022/06/21 02:16:45;;;;;;;3.45;2.08;;;26.90;49.30;;;;;;4950780;28;20722;-50
2022/06/21 02:19:42;;;;;;;2.50;1.38;;;26.90;49.30;;;;;;4955051;28;20164;-50
2022/06/21 02:22:20;;;;;;;2.38;1.67;;;26.90;49.20;;;;;;4952443;28;20033;-49
2022/06/21 02:24:46;;;;;;;3.20;1.88;;;26.90;49.40;;;;;;4954889;28;20103;-48
2022/06/21 02:27:15;;;;;;;2.75;1.58;;;26.90;49.10;;;;;;4952722;28;20451;-50
2022/06/21 02:29:46;;;;;;;2.42;1.40;;;26.90;49.00;;;;;;4954423;28;20644;-49
2022/06/21 02:32:25;;;;;;;2.70;1.50;;;26.90;49.00;;;;;;4953339;28;20031;-49
2022/06/21 02:34:55;;;;;;;2.13;1.30;;;26.90;48.80;;;;;;4953570;28;20102;-49
2022/06/21 02:37:23;;;;;;;2.47;1.38;;;26.90;48.60;;;;;;4955508;28;20085;-50
2022/06/21 02:39:50;;;;;;;2.08;1.20;;;26.90;48.50;;;;;;4953492;28;20023;-49
2022/06/21 02:42:25;;;;;;;1.88;1.08;;;26.90;48.50;;;;;;4955052;28;20027;-49
2022/06/21 02:44:56;;;;;;;2.97;1.30;;;26.90;48.50;;;;;;4953845;28;20058;-50
2022/06/21 02:47:28;;;;;;;2.47;1.38;;;26.90;48.40;;;;;;4951277;28;20031;-50
2022/06/21 02:50:21;;;;;;;1.77;1.08;;;26.90;48.30;;;;;;4949783;28;20601;-48
2022/06/21 02:52:50;;;;;;;2.28;1.10;;;26.90;48.20;;;;;;4953476;28;20034;-49
2022/06/21 02:55:24;;;;;;;2.20;1.00;;;26.90;48.10;;;;;;4954196;28;20076;-50
2022/06/21 02:58:19;;;;;;;1.80;0.80;;;26.80;48.00;;;;;;4952622;28;20487;-49
2022/06/21 03:00:46;;;;;;;1.70;0.98;;;26.80;48.10;;;;;;4954415;28;20712;-49
2022/06/21 03:03:25;;;;;;;1.65;0.98;;;26.80;48.10;;;;;;4952436;28;20065;-49
2022/06/21 03:05:57;;;;;;;2.05;0.93;;;26.80;47.90;;;;;;4952942;28;20019;-49
2022/06/21 03:08:23;;;;;;;2.13;1.00;;;26.80;47.90;;;;;;4954771;28;20438;-49
2022/06/21 03:10:50;;;;;;;1.58;0.90;;;26.80;47.90;;;;;;4955629;28;20759;-49
2022/06/21 03:13:21;;;;;;;1.58;0.90;;;26.80;47.90;;;;;;4953550;28;20760;-49
2022/06/21 03:15:53;;;;;;;1.70;0.90;;;26.80;47.90;;;;;;4953099;28;20015;-49
2022/06/21 03:18:24;;;;;;;1.23;0.85;;;26.80;47.80;;;;;;4953102;28;20026;-49
2022/06/21 03:20:52;;;;;;;1.73;0.80;;;26.80;47.70;;;;;;4951514;28;20043;-50
2022/06/21 03:23:19;;;;;;;1.13;0.60;;;26.80;47.70;;;;;;4955234;28;20036;-50
2022/06/21 03:26:00;;;;;;;1.48;0.73;;;26.80;47.70;;;;;;4953427;28;20030;-49
2022/06/21 03:28:33;;;;;;;1.35;0.75;;;26.80;47.70;;;;;;4954495;28;20118;-49
2022/06/21 03:31:05;;;;;;;1.35;0.60;;;26.80;47.60;;;;;;4954340;28;20026;-50
2022/06/21 03:33:33;;;;;;;1.63;0.90;;;26.80;47.60;;;;;;4952850;28;20150;-50
2022/06/21 03:36:00;;;;;;;1.58;0.80;;;26.80;47.50;;;;;;4953802;28;20111;-49
2022/06/21 03:38:26;;;;;;;1.50;0.80;;;26.80;47.40;;;;;;4953905;28;20113;-51
2022/06/21 03:43:47;;;;;;;2.78;1.10;;;26.80;47.30;;;;;;4954446;28;20054;-48
2022/06/21 03:46:30;;;;;;;1.00;0.60;;;26.80;47.20;;;;;;4954422;28;20471;-48
2022/06/21 03:49:10;;;;;;;1.98;0.90;;;26.80;47.20;;;;;;4952356;28;20715;-48
2022/06/21 03:51:42;;;;;;;1.35;0.70;;;26.80;47.10;;;;;;4955047;28;20102;-49
2022/06/21 03:54:20;;;;;;;1.38;0.82;;;26.80;47.00;;;;;;4953419;28;20718;-48
2022/06/21 03:56:53;;;;;;;1.23;0.65;;;26.80;47.10;;;;;;4954416;28;20090;-48
2022/06/21 04:00:06;;;;;;;0.90;0.52;;;26.80;47.10;;;;;;4954214;28;20027;-48
2022/06/21 04:02:46;;;;;;;1.65;0.82;;;26.70;47.10;;;;;;4952051;28;20101;-48
2022/06/21 04:05:20;;;;;;;0.80;0.52;;;26.70;46.90;;;;;;4954513;28;20495;-49
2022/06/21 04:07:59;;;;;;;1.27;0.70;;;26.70;46.70;;;;;;4953787;28;20139;-48
2022/06/21 04:10:38;;;;;;;1.13;0.70;;;26.70;46.70;;;;;;4967071;28;20027;-48
2022/06/21 04:13:39;;;;;;;1.23;0.47;;;26.70;46.60;;;;;;4950554;28;20495;-49
2022/06/21 04:16:34;;;;;;;2.13;0.80;;;26.70;46.70;;;;;;4955555;28;20028;-48
2022/06/21 04:19:27;;;;;;;1.25;0.60;;;26.70;46.50;;;;;;4942090;28;20039;-48
2022/06/21 04:22:10;;;;;;;1.00;0.60;;;26.80;46.80;;;;;;4951864;28;20110;-48
2022/06/21 04:25:06;;;;;;;0.90;0.50;;;26.70;46.60;;;;;;4953866;28;20552;-49
2022/06/21 04:27:41;;;;;;;2.13;0.77;;;26.70;46.60;;;;;;4955796;28;20398;-48
2022/06/21 04:30:07;;;;;;;1.77;0.68;;;26.70;46.40;;;;;;4944180;28;20031;-49
2022/06/21 04:32:48;;;;;;;1.30;0.60;;;26.70;46.30;;;;;;4948858;28;20117;-48
2022/06/21 04:35:37;;;;;;;2.17;0.75;;;26.70;46.40;;;;;;4950188;28;20015;-49
2022/06/21 04:38:16;;;;;;;4.18;1.58;;;26.60;46.30;;;;;;4953647;28;20036;-49
2022/06/21 04:40:50;;;;;;;3.95;1.40;;;26.70;46.50;;;;;;4955877;28;20031;-48
2022/06/21 04:43:26;;;;;;;6.35;1.85;;;26.70;46.60;;;;;;4953701;28;20755;-49
2022/06/21 04:45:55;;;;;;;5.45;2.00;;;26.70;46.50;;;;;;4956249;28;20585;-49
2022/06/21 04:48:45;;;;;;;7.38;1.98;;;26.70;46.60;;;;;;4957715;28;20054;-50
2022/06/21 04:51:20;;;;;;;7.18;2.58;;;26.60;46.60;;;;;;4956006;28;20022;-51
2022/06/21 04:53:52;;;;;;;7.07;3.00;;;26.70;46.50;;;;;;4955197;28;20024;-49
2022/06/21 04:56:35;;;;;;;6.25;2.17;;;26.70;46.40;;;;;;4957623;28;20027;-49
2022/06/21 04:59:05;;;;;;;8.68;2.65;;;26.70;46.40;;;;;;4957647;28;20026;-50
2022/06/21 05:01:32;;;;;;;6.70;2.38;;;26.60;46.40;;;;;;4955095;28;20027;-49
2022/06/21 05:04:38;;;;;;;7.03;2.03;;;26.60;46.40;;;;;;4956648;28;20057;-49
2022/06/21 05:07:07;;;;;;;5.75;2.00;;;26.70;46.40;;;;;;4956583;28;20027;-49
2022/06/21 05:09:34;;;;;;;4.65;1.92;;;26.60;46.30;;;;;;4956468;28;20133;-49
2022/06/21 05:12:25;;;;;;;6.90;2.03;;;26.70;46.10;;;;;;4954689;28;20337;-50
2022/06/21 05:14:57;;;;;;;4.55;1.58;;;26.70;45.30;;;;;;4956828;28;20126;-49
2022/06/21 05:17:23;;;;;;;3.70;1.27;;;26.60;45.40;;;;;;4956847;28;20078;-49
2022/06/21 05:19:52;;;;;;;4.35;1.40;;;26.60;45.30;;;;;;4957609;28;20039;-49
2022/06/21 05:22:40;;;;;;;2.35;1.08;;;26.60;45.00;;;;;;4955707;28;20491;-50
2022/06/21 05:25:34;;;;;;;2.72;1.00;;;26.60;44.20;;;;;;4957573;28;20249;-50
2022/06/21 05:28:19;;;;;;;2.13;1.02;;;26.60;44.40;;;;;;4957472;28;20067;-50
2022/06/21 05:30:59;;;;;;;4.03;1.25;;;26.60;44.30;;;;;;4955257;28;20023;-50
2022/06/21 05:33:41;;;;;;;3.55;1.13;;;26.60;43.90;;;;;;4955361;28;20026;-49
2022/06/21 05:36:11;;;;;;;3.10;0.85;;;26.60;43.10;;;;;;4955902;28;20050;-51
2022/06/21 05:38:54;;;;;;;2.80;0.70;;;26.60;43.00;;;;;;4957180;28;20058;-50
2022/06/21 05:41:30;;;;;;;2.47;0.80;;;26.60;43.30;;;;;;4956574;28;20118;-49
2022/06/21 05:44:02;;;;;;;2.63;0.90;;;26.50;43.00;;;;;;4954292;28;20015;-51
2022/06/21 05:46:31;;;;;;;1.92;0.82;;;26.50;42.60;;;;;;4957207;28;20763;-50
2022/06/21 05:48:58;;;;;;;2.13;0.52;;;26.50;42.10;;;;;;4954348;28;20030;-50
2022/06/21 05:51:31;;;;;;;2.63;0.80;;;26.50;42.00;;;;;;4954258;28;20018;-50
2022/06/21 05:54:06;;;;;;;1.80;0.55;;;26.50;42.20;;;;;;4954870;28;20031;-49
2022/06/21 05:56:34;;;;;;;2.90;0.90;;;26.50;40.90;;;;;;4955670;28;20035;-50
2022/06/21 05:59:11;;;;;;;2.30;0.65;;;26.50;42.80;;;;;;4956578;28;20022;-49
2022/06/21 06:02:01;;;;;;;2.35;0.60;;;26.50;42.10;;;;;;4950099;28;20031;-50
2022/06/21 06:04:33;;;;;;;2.15;0.75;;;26.50;41.90;;;;;;4947320;28;20027;-51
2022/06/21 06:07:01;;;;;;;1.60;0.75;;;26.50;42.00;;;;;;4946701;29;20422;-51
2022/06/21 06:09:33;;;;;;;2.25;0.80;;;26.50;41.90;;;;;;4947178;28;20586;-50
2022/06/21 06:12:03;;;;;;;2.50;0.75;;;26.50;41.70;;;;;;4935833;28;20020;-49
2022/06/21 06:14:48;;;;;;;2.00;0.90;;;26.50;41.80;;;;;;4942249;28;20041;-50
2022/06/21 06:17:51;;;;;;;2.20;0.82;;;26.40;41.90;;;;;;4955707;28;20090;-50
2022/06/21 06:20:54;;;;;;;2.60;0.57;;;26.40;42.00;;;;;;4954892;28;20129;-49
2022/06/21 06:23:27;;;;;;;2.42;0.60;;;26.40;42.00;;;;;;4953388;28;20552;-50
2022/06/21 06:25:59;;;;;;;2.20;0.63;;;26.40;41.70;;;;;;4953850;28;20034;-50
2022/06/21 06:28:35;;;;;;;1.73;0.70;;;26.50;41.60;;;;;;4954353;28;20027;-50
2022/06/21 06:31:09;;;;;;;1.80;0.75;;;26.40;41.10;;;;;;4953980;28;20758;-50
2022/06/21 06:33:45;;;;;;;2.67;0.60;;;26.40;41.90;;;;;;4953726;28;20089;-49
2022/06/21 06:36:17;;;;;;;1.67;0.60;;;26.50;41.70;;;;;;4954953;28;20031;-49
2022/06/21 06:38:44;;;;;;;3.22;1.10;;;26.40;41.60;;;;;;4926774;29;20028;-50
2022/06/21 06:41:31;;;;;;;1.48;0.60;;;26.50;41.50;;;;;;4927892;29;20539;-49
2022/06/21 06:44:04;;;;;;;2.80;0.95;;;26.40;41.70;;;;;;4927548;29;20037;-49
2022/06/21 06:46:35;;;;;;;1.42;0.60;;;26.50;41.90;;;;;;4941772;28;20035;-49
2022/06/21 06:49:21;;;;;;;1.85;0.70;;;26.50;41.90;;;;;;4945807;28;20027;-50
2022/06/21 06:51:55;;;;;;;1.02;0.45;;;26.40;42.20;;;;;;4933218;29;20024;-49
2022/06/21 06:54:28;;;;;;;2.33;0.77;;;26.50;42.30;;;;;;4927213;29;20020;-49
2022/06/21 06:57:01;;;;;;;;;;;26.50;42.50;;;;;;4928360;29;20046;-49
2022/06/21 06:59:26;;;;;;;;;;;26.50;42.80;;;;;;4927986;29;19953;-50
2022/06/21 07:02:04;;;;;;;1.40;0.60;;;26.50;42.90;;;;;;4934357;29;19914;-50
2022/06/21 07:04:39;;;;;;;2.17;0.65;;;26.50;42.90;;;;;;4946055;28;20059;-49
2022/06/21 07:07:15;;;;;;;1.55;0.60;;;26.50;43.80;;;;;;4946429;28;20034;-50
2022/06/21 07:09:54;;;;;;;3.10;0.70;;;26.50;43.10;;;;;;4946359;28;20051;-50
2022/06/21 07:12:27;;;;;;;2.47;0.70;;;26.50;43.30;;;;;;4944415;28;20035;-50
2022/06/21 07:14:54;;;;;;;2.17;0.90;;;26.50;43.40;;;;;;4935068;29;20039;-49
2022/06/21 07:17:40;;;;;;;2.55;0.80;;;26.50;43.50;;;;;;4946332;28;20035;-50
2022/06/21 07:20:15;;;;;;;2.97;1.27;;;26.50;43.60;;;;;;4946177;28;20119;-51
2022/06/21 07:22:42;;;;;;;1.27;0.55;;;26.50;43.60;;;;;;4926153;29;20036;-50
2022/06/21 07:25:19;;;;;;;1.88;0.70;;;26.50;43.70;;;;;;4926647;29;20039;-49
2022/06/21 07:27:48;;;;;;;3.72;1.08;;;26.50;43.70;;;;;;4927169;29;20063;-50
2022/06/21 07:30:16;;;;;;;1.63;0.52;;;26.60;43.80;;;;;;4924630;29;20063;-50
2022/06/21 07:33:04;;;;;;;2.03;0.68;;;26.60;43.80;;;;;;4938920;28;20027;-49
2022/06/21 07:35:41;;;;;;;1.77;0.68;;;26.50;43.90;;;;;;4945970;28;20111;-50
2022/06/21 07:38:14;;;;;;;1.88;0.65;;;26.60;43.90;;;;;;4945993;28;20043;-49
2022/06/21 07:41:10;;;;;;;1.35;0.47;;;26.60;44.00;;;;;;4928513;29;20031;-50
2022/06/21 07:43:44;;;;;;;1.38;0.60;;;26.50;44.10;;;;;;4943941;29;20117;-50
2022/06/21 07:46:16;;;;;;;1.35;0.52;;;26.60;44.20;;;;;;4945181;28;20130;-50
2022/06/21 07:48:48;;;;;;;2.38;1.00;;;26.60;44.30;;;;;;4945327;28;20039;-49
2022/06/21 07:51:40;;;;;;;1.95;0.60;;;26.60;44.30;;;;;;4936489;28;20036;-49
2022/06/21 07:54:15;;;;;;;2.40;0.75;;;26.60;44.40;;;;;;4926446;29;20409;-49
2022/06/21 07:56:43;;;;;;;2.30;0.80;;;26.60;44.40;;;;;;4926671;29;20086;-50
2022/06/21 07:59:20;;;;;;;2.15;0.60;;;26.60;44.40;;;;;;4929129;29;20484;-51
2022/06/21 08:07:31;;;;;;;1.85;0.50;;;26.60;44.50;;;;;;4949777;29;20603;-49
2022/06/21 08:10:07;;;;;;;2.40;0.68;;;26.60;44.60;;;;;;4949403;28;20023;-50
2022/06/21 08:12:32;;;;;;;1.48;0.63;;;26.60;45.30;;;;;;4949459;28;20415;-50
2022/06/21 08:15:00;;;;;;;2.45;0.85;;;26.70;44.70;;;;;;4947542;28;20031;-50
2022/06/21 08:17:56;;;;;;;2.65;0.95;;;26.70;44.70;;;;;;4940326;29;20081;-49
2022/06/21 08:20:24;;;;;;;1.08;0.50;;;26.60;44.70;;;;;;4930558;29;20066;-49
2022/06/21 08:22:57;;;;;;;1.52;0.50;;;26.70;44.70;;;;;;4929990;29;20040;-49
2022/06/21 08:25:41;;;;;;;1.27;0.60;;;26.70;44.80;;;;;;4930013;29;20459;-50
2022/06/21 08:28:37;;;;;;;1.00;0.40;;;26.60;44.80;;;;;;4929987;29;20027;-50
2022/06/21 08:31:26;;;;;;;1.13;0.55;;;26.70;44.80;;;;;;4929730;29;20028;-50
2022/06/21 08:33:54;;;;;;;1.85;0.50;;;26.70;44.80;;;;;;4929611;29;20028;-51
2022/06/21 08:36:28;;;;;;;1.23;0.65;;;26.70;44.80;;;;;;4929935;29;20126;-50
2022/06/21 08:39:19;;;;;;;1.30;0.43;;;26.70;44.80;;;;;;4929556;29;20050;-50
2022/06/21 08:42:01;;;;;;;1.25;0.50;;;26.70;44.90;;;;;;4929933;29;20404;-50
2022/06/21 08:45:40;;;;;;;1.13;0.43;;;26.70;45.00;;;;;;4928603;29;20066;-50
2022/06/21 08:47:58;;;;;;;1.48;0.63;;;26.70;45.00;;;;;;4940880;28;20422;-49
2022/06/21 08:50:43;;;;;;;1.70;0.55;;;26.70;45.00;;;;;;4946303;29;20454;-50
2022/06/21 08:53:41;;;;;;;1.08;0.30;;;26.70;45.00;;;;;;4929842;29;20032;-49
2022/06/21 08:56:29;;;;;;;3.03;0.95;;;26.70;45.00;;;;;;4929583;29;20035;-49
2022/06/21 08:59:12;;;;;;;1.42;0.52;;;26.70;45.00;;;;;;4929813;29;20071;-50
2022/06/21 09:01:43;;;;;;;;;;;26.70;45.10;;;;;;4932620;28;20028;-49
2022/06/21 09:04:44;;;;;;;1.55;0.60;;;26.70;45.00;;;;;;4948335;28;19917;-50
2022/06/21 09:07:23;;;;;;;1.05;0.38;;;26.70;45.10;;;;;;4948373;29;20032;-50
2022/06/21 09:10:07;;;;;;;1.80;0.50;;;26.70;45.10;;;;;;4948003;28;20410;-49
2022/06/21 09:12:38;;;;;;;1.33;0.50;;;26.70;45.10;;;;;;4948347;29;20050;-50
2022/06/21 09:15:12;;;;;;;1.05;0.38;;;26.70;45.10;;;;;;4948852;28;20034;-50
2022/06/21 09:17:44;;;;;;;1.38;0.40;;;26.80;45.00;;;;;;4948630;28;20031;-49
2022/06/21 09:20:15;;;;;;;1.17;0.50;;;26.80;45.00;;;;;;4936178;29;20063;-50
2022/06/21 09:23:12;;;;;;;1.38;0.60;;;26.80;45.10;;;;;;4928451;29;20587;-49
2022/06/21 09:25:47;;;;;;;1.30;0.50;;;26.80;45.10;;;;;;4939337;29;20515;-50
2022/06/21 09:28:35;;;;;;;1.35;0.50;;;26.80;45.10;;;;;;4947911;28;20027;-50
2022/06/21 09:31:10;;;;;;;1.75;0.50;;;26.80;45.10;;;;;;4948410;28;20055;-50
2022/06/21 09:33:56;;;;;;;0.77;0.35;;;26.80;45.10;;;;;;4947504;28;20039;-49
2022/06/21 09:36:31;;;;;;;0.88;0.43;;;26.80;45.10;;;;;;4948165;29;20058;-49
2022/06/21 09:39:00;;;;;;;1.85;0.50;;;26.80;45.10;;;;;;4948128;28;20039;-49
2022/06/21 09:41:52;;;;;;;1.05;0.43;;;26.80;45.20;;;;;;4948256;29;20897;-49
2022/06/21 09:44:46;;;;;;;1.23;0.50;;;26.80;45.20;;;;;;4947902;28;20114;-49
2022/06/21 09:47:33;;;;;;;1.92;0.68;;;26.80;45.10;;;;;;4946944;28;20031;-50
2022/06/21 09:50:09;;;;;;;1.40;0.70;;;26.80;45.10;;;;;;4947763;29;20181;-50
2022/06/21 09:52:50;;;;;;;0.80;0.40;;;26.80;45.10;;;;;;4928281;29;20034;-50
2022/06/21 09:55:15;;;;;;;1.70;0.60;;;26.80;45.10;;;;;;4928582;29;20035;-51
2022/06/21 09:58:01;;;;;;;1.05;0.45;;;26.80;45.10;;;;;;4928384;29;20194;-49
2022/06/21 10:00:33;;;;;;;0.95;0.43;;;26.80;45.10;;;;;;4928478;29;20115;-50
2022/06/21 10:03:11;;;;;;;1.30;0.43;;;26.80;45.00;;;;;;4941058;28;20039;-50
2022/06/21 10:05:47;;;;;;;1.15;0.47;;;26.80;45.10;;;;;;4947384;29;20574;-50
2022/06/21 10:08:40;;;;;;;1.45;0.40;;;26.80;45.10;;;;;;4947391;28;20046;-49
2022/06/21 10:11:32;;;;;;;;;;;26.90;45.10;;;;;;4946651;29;20059;-50
2022/06/21 10:14:01;;;;;;;0.68;0.30;;;26.80;45.00;;;;;;4946964;28;19929;-49
2022/06/21 10:16:48;;;;;;;0.85;0.40;;;26.80;45.10;;;;;;4947481;28;20071;-49
2022/06/21 10:19:16;;;;;;;1.60;0.50;;;26.80;45.20;;;;;;4947277;29;20050;-49
2022/06/21 10:21:44;;;;;;;1.92;0.70;;;26.80;45.10;;;;;;4934166;29;20032;-49
2022/06/21 10:24:28;;;;;;;1.15;0.55;;;26.80;45.20;;;;;;4927613;29;20040;-49
2022/06/21 10:27:26;;;;;;;0.98;0.50;;;26.80;45.20;;;;;;4927014;29;20035;-49
2022/06/21 10:30:07;;;;;;;1.85;0.70;;;26.80;45.20;;;;;;4936856;29;20387;-49
2022/06/21 10:32:58;;;;;;;0.50;0.40;;;26.80;45.10;;;;;;4946460;28;20406;-50
2022/06/21 10:35:40;;;;;;;2.25;0.70;;;26.90;45.10;;;;;;4945475;29;20684;-49
2022/06/21 10:38:25;;;;;;;1.75;0.52;;;26.80;45.10;;;;;;4946967;28;20582;-50
2022/06/21 10:41:00;;;;;;;0.77;0.40;;;26.90;45.20;;;;;;4946841;29;20035;-50
2022/06/21 10:43:41;;;;;;;0.90;0.40;;;26.90;45.10;;;;;;4946307;28;20058;-50
2022/06/21 10:46:14;;;;;;;0.70;0.40;;;26.90;45.40;;;;;;4945376;29;20149;-49
2022/06/21 10:48:43;;;;;;;1.05;0.40;;;26.90;45.10;;;;;;4946506;28;20519;-49
2022/06/21 10:51:08;;;;;;;1.25;0.52;;;26.90;45.10;;;;;;4938680;29;20080;-50
2022/06/21 10:54:08;;;;;;;1.02;0.50;;;26.90;45.10;;;;;;4927002;29;20048;-50
2022/06/21 10:57:12;;;;;;;1.63;0.60;;;26.90;45.10;;;;;;4927506;29;20024;-51
2022/06/21 11:03:26;;;;;;;1.20;0.40;;;26.90;45.10;;;;;;4911584;29;20067;-49
2022/06/21 11:06:16;;;;;;;0.90;0.40;;;26.90;45.10;;;;;;4927867;29;20036;-50
2022/06/21 11:09:07;;;;;;;0.80;0.30;;;26.90;45.10;;;;;;4927625;29;20451;-49
2022/06/21 11:11:42;;;;;;;1.75;0.60;;;26.90;45.10;;;;;;4927467;29;20180;-50
2022/06/21 11:14:29;;;;;;;1.58;0.70;;;26.90;45.10;;;;;;4926278;29;20079;-50
2022/06/21 11:17:17;;;;;;;0.90;0.40;;;26.90;45.10;;;;;;4930359;28;20070;-48
2022/06/21 11:19:54;;;;;;;1.55;0.50;;;26.90;45.10;;;;;;4946394;29;20031;-49
2022/06/21 11:22:46;;;;;;;1.70;0.50;;;26.90;45.00;;;;;;4928161;28;20068;-50
2022/06/21 11:25:20;;;;;;;1.33;0.43;;;26.90;45.10;;;;;;4927199;29;20534;-49
2022/06/21 11:28:16;;;;;;;1.00;0.38;;;26.90;45.10;;;;;;4926642;29;20042;-49
2022/06/21 11:30:45;;;;;;;2.42;0.40;;;26.90;45.10;;;;;;4927285;29;20055;-50
2022/06/21 11:33:39;;;;;;;1.17;0.60;;;26.90;45.80;;;;;;4929163;28;20027;-49
2022/06/21 11:36:11;;;;;;;0.90;0.50;;;26.90;45.20;;;;;;4926966;29;20055;-49
2022/06/21 11:38:58;;;;;;;0.90;0.47;;;26.90;45.90;;;;;;4926686;29;20198;-50
2022/06/21 11:44:36;;;;;;;1.30;0.50;;;26.90;45.20;;;;;;4926833;29;20024;-50
2022/06/21 11:47:14;;;;;;;1.42;0.57;;;27.00;45.80;;;;;;4930374;29;20031;-50
2022/06/21 11:50:16;;;;;;;1.45;0.60;;;27.00;45.80;;;;;;4945923;28;20031;-49
2022/06/21 11:53:06;;;;;;;1.25;0.40;;;27.00;45.80;;;;;;4926611;29;20082;-50
2022/06/21 11:55:56;;;;;;;1.48;0.55;;;27.00;45.80;;;;;;4926530;29;20028;-49
2022/06/21 11:58:42;;;;;;;1.25;0.50;;;27.00;45.80;;;;;;4926779;29;20768;-50
2022/06/21 12:01:17;;;;;;;1.08;0.43;;;27.00;45.80;;;;;;4926645;29;20043;-49
2022/06/21 12:04:08;;;;;;;1.08;0.43;;;27.00;46.50;;;;;;4942863;28;20089;-49
2022/06/21 12:06:53;;;;;;;1.05;0.47;;;27.00;45.80;;;;;;4945695;28;20054;-49
2022/06/21 12:09:31;;;;;;;1.20;0.60;;;27.10;45.80;;;;;;4945846;28;20438;-50
2022/06/21 12:12:19;;;;;;;1.08;0.50;;;27.10;46.10;;;;;;4945404;29;20027;-49
2022/06/21 12:15:06;;;;;;;0.98;0.40;;;27.10;45.80;;;;;;4944379;29;20034;-50
2022/06/21 12:17:47;;;;;;;0.40;0.28;;;27.10;45.80;;;;;;4943651;28;20035;-49
2022/06/21 12:20:38;;;;;;;1.23;0.45;;;27.10;45.80;;;;;;4944432;28;20118;-50
2022/06/21 12:23:15;;;;;;;0.68;0.40;;;27.20;45.80;;;;;;4904903;29;20047;-50
2022/06/21 12:25:41;;;;;;;0.82;0.32;;;27.20;45.80;;;;;;4924335;29;20079;-49
2022/06/21 12:28:19;;;;;;;1.15;0.60;;;27.20;45.80;;;;;;4926479;29;20066;-50
2022/06/21 12:30:45;;;;;;;1.95;0.50;;;27.20;45.70;;;;;;4926121;29;20669;-50
2022/06/21 12:33:15;;;;;;;0.90;0.38;;;27.20;45.70;;;;;;4937558;29;20027;-49
2022/06/21 12:36:17;;;;;;;1.13;0.30;;;27.20;45.70;;;;;;4939616;28;20028;-49
2022/06/21 12:38:52;;;;;;;0.65;0.30;;;27.20;45.70;;;;;;4930069;28;20845;-50
2022/06/21 12:41:40;;;;;;;0.88;0.40;;;27.30;45.70;;;;;;4925344;29;20559;-50
2022/06/21 12:44:09;;;;;;;1.15;0.50;;;27.30;45.70;;;;;;4926862;29;20043;-49
2022/06/21 12:46:52;;;;;;;0.73;0.30;;;27.30;45.60;;;;;;4929343;29;20115;-49
2022/06/21 12:49:36;;;;;;;1.33;0.50;;;27.30;45.60;;;;;;4929196;29;20659;-50
2022/06/21 12:52:11;;;;;;;0.50;0.30;;;27.30;45.60;;;;;;4943878;29;20030;-49
2022/06/21 12:54:59;;;;;;;1.52;0.50;;;27.40;45.60;;;;;;4948248;28;20050;-50
2022/06/21 12:57:39;;;;;;;1.02;0.60;;;27.40;45.50;;;;;;4948895;28;20521;-49
2022/06/21 13:00:08;;;;;;;2.10;0.47;;;27.40;45.50;;;;;;4948770;28;20133;-49
2022/06/21 13:02:40;;;;;;;1.40;0.68;;;27.40;45.40;;;;;;4948123;28;20039;-50
2022/06/21 13:05:30;;;;;;;1.05;0.47;;;27.40;45.40;;;;;;4948749;29;20561;-50
2022/06/21 13:08:14;;;;;;;1.10;0.50;;;27.40;45.30;;;;;;4946255;29;20545;-50
2022/06/21 13:11:03;;;;;;;1.42;0.47;;;27.40;45.30;;;;;;4948458;29;20086;-49
2022/06/21 13:14:24;;;;;;;2.60;0.60;;;27.50;45.30;;;;;;4947975;28;20031;-49
2022/06/21 13:17:02;;;;;;;1.58;0.60;;;27.50;45.30;;;;;;4928491;28;20212;-51
2022/06/21 13:19:35;;;;;;;1.38;0.52;;;27.50;45.20;;;;;;4948480;29;20526;-50
2022/06/21 13:22:45;;;;;;;1.08;0.40;;;27.50;45.20;;;;;;4933367;29;20028;-51
2022/06/21 13:25:47;;;;;;;0.80;0.40;;;27.50;45.20;;;;;;4888085;29;20032;-50
2022/06/21 13:28:15;;;;;;;1.95;0.63;;;27.60;45.20;;;;;;4888056;29;20319;-49
2022/06/21 13:30:54;;;;;;;0.77;0.30;;;27.60;45.10;;;;;;4919321;29;20575;-49
2022/06/21 13:33:32;;;;;;;0.88;0.40;;;27.60;45.10;;;;;;4940492;28;20615;-51
2022/06/21 13:36:25;;;;;;;1.13;0.50;;;27.60;45.10;;;;;;4946241;29;20035;-49
2022/06/21 13:39:16;;;;;;;1.15;0.47;;;27.60;45.10;;;;;;4943520;29;20323;-50
2022/06/21 13:44:48;;;;;;;2.10;0.77;;;27.70;45.70;;;;;;4922100;28;20539;-50
2022/06/21 13:47:26;;;;;;;3.30;0.82;;;27.70;45.70;;;;;;4944893;28;20444;-50
2022/06/21 13:50:03;;;;;;;1.90;0.50;;;27.70;45.70;;;;;;4944064;29;20042;-50
2022/06/21 13:52:51;;;;;;;2.15;0.55;;;27.70;45.70;;;;;;4947029;29;20039;-50
2022/06/21 13:55:40;;;;;;;1.10;0.47;;;27.70;45.70;;;;;;4947538;28;20041;-50
2022/06/21 13:58:18;;;;;;;2.17;0.80;;;27.80;45.70;;;;;;4927189;29;20657;-50
2022/06/21 14:01:06;;;;;;;2.45;0.73;;;27.70;45.70;;;;;;4928095;29;20459;-50
2022/06/21 14:03:40;;;;;;;1.40;0.60;;;27.80;45.50;;;;;;4940977;28;20054;-49
2022/06/21 14:06:21;;;;;;;1.52;0.52;;;27.80;45.70;;;;;;4947756;29;20709;-50